createdAt,value
2019-03-03T07:17:57.169Z,47.88
2019-03-03T07:20:25.848Z,47.53
2019-03-03T07:22:54.525Z,47.03
2019-03-03T07:25:23.405Z,39.17
2019-03-03T07:27:52.204Z,41.80
2019-03-03T07:30:20.937Z,42.30
2019-03-03T07:32:54.484Z,44.03
2019-03-03T07:35:23.164Z,45.33
2019-03-03T07:37:52.062Z,46.70
2019-03-03T07:40:20.887Z,45.40
2019-03-03T07:42:49.631Z,49.50
2019-03-03T07:45:18.444Z,44.67
2019-03-03T07:47:47.115Z,45.73
2019-03-03T07:50:15.586Z,47.80
2019-03-03T07:52:44.167Z,45.10
2019-03-03T07:55:13.816Z,48.40
2019-03-03T07:57:42.461Z,47.23
2019-03-03T08:00:17.091Z,50.73
2019-03-03T08:02:47.424Z,48.77
2019-03-03T08:05:16.195Z,45.30
2019-03-03T08:07:44.765Z,43.03
2019-03-03T08:10:15.930Z,39.40
2019-03-03T08:12:44.609Z,43.40
2019-03-03T08:15:16.050Z,37.73
2019-03-03T08:17:44.733Z,40.77
2019-03-03T08:20:14.450Z,38.43
2019-03-03T08:22:43.250Z,40.40
2019-03-03T08:25:13.041Z,38.37
2019-03-03T08:27:43.412Z,40.63
2019-03-03T08:30:14.936Z,42.50
2019-03-03T08:32:43.733Z,40.93
2019-03-03T08:35:15.580Z,39.47
2019-03-03T08:37:44.373Z,41.33
2019-03-03T08:40:14.779Z,41.70
2019-03-03T08:42:45.210Z,39.20
2019-03-03T08:45:33.689Z,39.97
2019-03-03T08:48:07.091Z,38.43
2019-03-03T08:50:46.891Z,35.37
2019-03-03T08:53:20.488Z,38.20
2019-03-03T08:55:56.761Z,38.63
2019-03-03T08:58:36.395Z,32.97
2019-03-03T09:01:07.328Z,36.40
2019-03-03T09:03:43.358Z,37.40
2019-03-03T09:06:29.941Z,32.93
2019-03-03T09:09:02.308Z,36.37
2019-03-03T09:11:35.271Z,33.33
2019-03-03T09:14:05.491Z,34.17
2019-03-03T09:16:51.484Z,30.60
2019-03-03T09:19:38.148Z,29.90
2019-03-03T09:22:14.354Z,29.83
2019-03-03T09:24:50.480Z,30.17
2019-03-03T09:27:20.813Z,29.13
2019-03-03T09:30:07.311Z,30.27
2019-03-03T09:32:40.505Z,28.27
2019-03-03T09:35:10.723Z,25.47
2019-03-03T09:37:46.533Z,25.23
2019-03-03T09:40:16.893Z,29.13
2019-03-03T09:42:47.224Z,29.13
2019-03-03T09:45:19.814Z,28.07
2019-03-03T09:47:53.586Z,26.77
2019-03-03T09:50:38.733Z,26.33
2019-03-03T09:53:14.884Z,27.47
2019-03-03T09:55:47.705Z,25.13
2019-03-03T09:58:17.931Z,28.50
2019-03-03T10:01:04.310Z,19.43
2019-03-03T10:03:43.652Z,20.83
2019-03-03T10:06:16.756Z,21.10
2019-03-03T10:08:46.963Z,21.57
2019-03-03T10:11:17.296Z,24.13
2019-03-03T10:13:47.517Z,20.30
2019-03-03T10:16:35.811Z,24.53
2019-03-03T10:19:07.086Z,23.87
2019-03-03T10:21:37.731Z,20.60
2019-03-03T10:24:17.065Z,20.80
2019-03-03T10:27:03.773Z,18.03
2019-03-03T10:29:43.013Z,19.03
2019-03-03T10:32:13.322Z,16.20
2019-03-03T10:34:52.683Z,24.53
2019-03-03T10:37:22.901Z,15.30
2019-03-03T10:40:08.335Z,14.37
2019-03-03T10:42:50.570Z,17.07
2019-03-03T10:45:36.860Z,14.27
2019-03-03T10:48:10.156Z,13.97
2019-03-03T10:50:46.485Z,15.47
2019-03-03T10:53:16.844Z,14.90
2019-03-03T10:55:47.283Z,14.70
2019-03-03T10:58:23.403Z,12.50
2019-03-03T11:00:53.885Z,17.53
2019-03-03T11:03:41.844Z,16.80
2019-03-03T11:06:17.644Z,17.40
2019-03-03T11:08:56.638Z,13.87
2019-03-03T11:11:29.926Z,14.17
2019-03-03T11:14:15.036Z,15.37
2019-03-03T11:17:01.874Z,12.17
2019-03-03T11:19:44.141Z,12.50
2019-03-03T11:22:19.582Z,14.20
2019-03-03T11:24:59.022Z,13.50
2019-03-03T11:27:35.287Z,12.93
2019-03-03T11:30:23.362Z,11.27
2019-03-03T11:33:11.276Z,13.33
2019-03-03T11:35:42.038Z,12.07
2019-03-03T11:38:18.678Z,14.97
2019-03-03T11:40:57.879Z,16.73
2019-03-03T11:43:31.872Z,19.07
2019-03-03T11:46:14.190Z,12.70
2019-03-03T11:48:55.590Z,15.17
2019-03-03T11:51:39.351Z,12.97
2019-03-03T11:54:09.913Z,13.80
2019-03-03T11:56:40.582Z,14.97
2019-03-03T11:59:26.899Z,13.10
2019-03-03T12:02:13.305Z,13.57
2019-03-03T12:04:46.570Z,11.13
2019-03-03T12:07:23.061Z,15.07
2019-03-03T12:10:05.620Z,8.77
2019-03-03T12:12:35.977Z,12.83
2019-03-03T12:15:09.078Z,11.10
2019-03-03T12:17:39.503Z,15.03
2019-03-03T12:20:16.087Z,16.57
2019-03-03T12:23:02.765Z,12.47
2019-03-03T12:25:46.050Z,12.30
2019-03-03T12:28:16.627Z,10.83
2019-03-03T12:30:49.984Z,11.07
2019-03-03T12:33:29.465Z,17.67
2019-03-03T12:36:04.895Z,11.50
2019-03-03T12:38:51.011Z,14.00
2019-03-03T12:41:36.377Z,11.80
2019-03-03T12:44:06.691Z,11.63
2019-03-03T12:46:46.857Z,11.13
2019-03-03T12:49:33.330Z,11.70
2019-03-03T12:52:04.605Z,16.07
2019-03-03T12:54:50.362Z,13.87
2019-03-03T12:57:23.167Z,8.13
2019-03-03T13:00:11.518Z,11.83
2019-03-03T13:02:55.954Z,14.67
2019-03-03T13:05:41.558Z,12.57
2019-03-03T13:08:15.017Z,11.43
2019-03-03T13:10:47.342Z,10.87
2019-03-03T13:13:34.381Z,10.93
2019-03-03T13:16:07.737Z,11.70
2019-03-03T13:18:38.547Z,10.93
2019-03-03T13:21:14.709Z,14.43
2019-03-03T13:23:47.698Z,10.70
2019-03-03T13:26:33.453Z,10.67
2019-03-03T13:29:07.060Z,11.20
2019-03-03T13:31:52.539Z,11.70
2019-03-03T13:34:31.786Z,15.30
2019-03-03T13:37:03.815Z,17.83
2019-03-03T13:39:49.203Z,14.33
2019-03-03T13:42:19.729Z,13.47
2019-03-03T13:44:50.349Z,12.97
2019-03-03T13:47:19.468Z,11.20
2019-03-03T13:49:48.581Z,17.13
2019-03-03T13:52:17.490Z,13.40
2019-03-03T13:54:46.495Z,14.97
2019-03-03T13:57:15.474Z,13.67
2019-03-03T13:59:44.244Z,14.60
2019-03-03T14:02:13.249Z,10.60
2019-03-03T14:04:42.051Z,16.27
2019-03-03T14:07:11.137Z,13.80
2019-03-03T14:09:39.918Z,13.23
2019-03-03T14:12:10.412Z,13.03
2019-03-03T14:14:39.242Z,16.53
2019-03-03T14:17:08.145Z,11.77
2019-03-03T14:19:36.840Z,9.83
2019-03-03T14:22:05.582Z,14.03
2019-03-03T14:24:34.390Z,12.40
2019-03-03T14:27:10.340Z,14.43
2019-03-03T14:29:33.703Z,16.13
2019-03-03T14:32:02.429Z,14.23
2019-03-03T14:34:32.985Z,11.83
2019-03-03T14:37:01.708Z,12.00
2019-03-03T14:39:30.592Z,15.00
2019-03-03T14:41:59.823Z,10.73
2019-03-03T14:44:30.159Z,13.07
2019-03-03T14:46:59.141Z,9.63
2019-03-03T14:49:28.115Z,12.47
2019-03-03T14:51:56.887Z,14.87
2019-03-03T14:54:25.741Z,12.90
2019-03-03T14:56:54.683Z,14.00
2019-03-03T14:59:24.819Z,13.63
2019-03-03T15:01:53.663Z,14.83
2019-03-03T15:04:22.692Z,15.53
2019-03-03T15:06:53.020Z,14.33
2019-03-03T15:09:23.012Z,13.97
2019-03-03T15:11:52.098Z,16.80
2019-03-03T15:14:21.087Z,14.87
2019-03-03T15:16:50.172Z,15.23
2019-03-03T15:19:19.341Z,11.23
2019-03-03T15:21:48.198Z,16.70
2019-03-03T15:24:16.803Z,13.90
2019-03-03T15:26:45.569Z,15.40
2019-03-03T15:29:14.543Z,13.73
2019-03-03T15:31:43.171Z,13.23
2019-03-03T15:34:12.263Z,14.97
2019-03-03T15:36:41.077Z,16.70
2019-03-03T15:39:11.568Z,18.10
2019-03-03T15:41:40.558Z,19.00
2019-03-03T15:44:09.650Z,15.93
2019-03-03T15:46:38.487Z,21.97
2019-03-03T15:49:08.687Z,15.20
2019-03-03T15:51:37.717Z,18.43
2019-03-03T15:54:07.661Z,16.90
2019-03-03T15:56:36.645Z,17.57
2019-03-03T15:59:05.565Z,14.87
2019-03-03T16:01:36.030Z,16.60
2019-03-03T16:04:04.957Z,19.67
2019-03-03T16:06:33.797Z,16.57
2019-03-03T16:09:04.064Z,22.33
2019-03-03T16:11:32.918Z,18.93
2019-03-03T16:14:01.477Z,19.97
2019-03-03T16:16:30.320Z,19.53
2019-03-03T16:18:59.138Z,16.23
2019-03-03T16:21:28.202Z,17.07
2019-03-03T16:23:57.001Z,18.63
2019-03-03T16:26:25.678Z,27.10
2019-03-03T16:28:54.773Z,14.87
2019-03-03T16:31:25.353Z,21.23
2019-03-03T16:33:54.473Z,19.53
2019-03-03T16:36:23.367Z,16.90
2019-03-03T16:38:52.061Z,19.17
2019-03-03T16:41:20.639Z,14.60
2019-03-03T16:43:49.540Z,15.00
2019-03-03T16:46:18.181Z,18.77
2019-03-03T16:48:47.033Z,19.50
2019-03-03T16:51:15.794Z,20.13
2019-03-03T16:53:44.479Z,19.00
2019-03-03T16:56:13.358Z,19.37
2019-03-03T16:58:43.282Z,22.27
2019-03-03T17:01:11.951Z,22.07
2019-03-03T17:03:40.619Z,21.47
2019-03-03T17:06:09.849Z,20.63
2019-03-03T17:08:39.769Z,19.63
2019-03-03T17:11:08.569Z,22.53
2019-03-03T17:13:37.338Z,15.03
2019-03-03T17:16:06.223Z,18.93
2019-03-03T17:18:34.897Z,16.57
2019-03-03T17:21:03.792Z,18.30
2019-03-03T17:23:32.705Z,21.03
2019-03-03T17:26:02.053Z,18.17
2019-03-03T17:28:30.867Z,19.20
2019-03-03T17:30:59.738Z,19.77
2019-03-03T17:33:28.551Z,22.27
2019-03-03T17:35:57.864Z,18.93
2019-03-03T17:38:26.984Z,15.63
2019-03-03T17:40:56.149Z,20.70
2019-03-03T17:43:24.926Z,19.80
2019-03-03T17:45:53.726Z,18.77
2019-03-03T17:48:22.486Z,21.83
2019-03-03T17:50:52.644Z,20.30
2019-03-03T17:53:21.444Z,18.53
2019-03-03T17:55:50.404Z,24.40
2019-03-03T17:58:18.964Z,23.10
2019-03-03T18:00:48.680Z,17.47
2019-03-03T18:03:18.008Z,20.07
2019-03-03T18:05:46.570Z,21.97
2019-03-03T18:08:15.303Z,15.20
2019-03-03T18:10:43.943Z,17.73
2019-03-03T18:13:12.981Z,15.80
2019-03-03T18:15:44.710Z,17.47
2019-03-03T18:18:13.728Z,17.70
2019-03-03T18:20:42.256Z,19.40
2019-03-03T18:23:11.274Z,20.97
2019-03-03T18:25:40.030Z,19.67
2019-03-03T18:28:09.052Z,22.23
2019-03-03T18:30:37.784Z,20.63
2019-03-03T18:33:06.784Z,22.90
2019-03-03T18:35:35.384Z,18.37
2019-03-03T18:38:03.982Z,20.57
2019-03-03T18:40:32.764Z,27.33
2019-03-03T18:46:41.734Z,22.33
2019-03-03T18:49:13.404Z,20.33
2019-03-03T18:51:42.240Z,18.87
2019-03-03T18:54:11.135Z,17.67
2019-03-03T18:56:39.917Z,20.20
2019-03-03T18:59:08.630Z,21.83
2019-03-03T19:01:37.389Z,24.30
2019-03-03T19:04:05.863Z,19.77
2019-03-03T19:06:34.987Z,21.47
2019-03-03T19:09:04.049Z,18.20
2019-03-03T19:11:32.538Z,17.43
2019-03-03T19:14:01.119Z,22.27
2019-03-03T19:16:29.921Z,19.20
2019-03-03T19:19:00.441Z,16.23
2019-03-03T19:21:29.239Z,16.60
2019-03-03T19:23:58.139Z,20.17
2019-03-03T19:26:27.046Z,14.47
2019-03-03T19:28:55.731Z,19.53
2019-03-03T19:31:24.619Z,20.07
2019-03-03T19:33:55.552Z,21.10
2019-03-03T19:36:25.750Z,18.47
2019-03-03T19:38:54.417Z,21.07
2019-03-03T19:41:23.177Z,17.70
2019-03-03T19:43:53.564Z,17.87
2019-03-03T19:46:22.401Z,20.97
2019-03-03T19:48:51.440Z,22.27
2019-03-03T19:51:20.433Z,18.90
2019-03-03T19:53:49.003Z,19.83
2019-03-03T19:56:19.165Z,22.03
2019-03-03T19:58:47.890Z,16.57
2019-03-03T20:01:16.610Z,20.70
2019-03-03T20:03:45.489Z,19.77
2019-03-03T20:06:14.270Z,20.63
2019-03-03T20:08:43.010Z,20.23
2019-03-03T20:11:11.834Z,18.00
2019-03-03T20:13:41.421Z,19.43
2019-03-03T20:16:10.119Z,18.53
2019-03-03T20:18:39.144Z,25.97
2019-03-03T20:21:07.829Z,21.07
2019-03-03T20:23:36.638Z,17.90
2019-03-03T20:26:05.399Z,24.67
2019-03-03T20:28:34.410Z,21.10
2019-03-03T20:31:05.405Z,17.50
2019-03-03T20:33:34.336Z,14.63
2019-03-03T20:36:03.297Z,17.97
2019-03-03T20:38:32.495Z,15.90
2019-03-03T20:41:01.506Z,19.60
2019-03-03T20:43:30.049Z,19.20
2019-03-03T20:45:58.925Z,18.07
2019-03-03T20:48:27.845Z,14.40
2019-03-03T20:50:56.646Z,22.90
2019-03-03T20:53:25.318Z,16.63
2019-03-03T20:55:54.087Z,16.43
2019-03-03T20:58:22.678Z,19.30
2019-03-03T21:00:51.362Z,15.63
2019-03-03T21:03:21.690Z,16.03
2019-03-03T21:05:50.559Z,21.67
2019-03-03T21:08:19.104Z,16.63
2019-03-03T21:10:47.974Z,24.53
2019-03-03T21:13:16.999Z,14.80
2019-03-03T21:15:45.841Z,15.73
2019-03-03T21:18:14.679Z,19.30
2019-03-03T21:20:43.873Z,14.53
2019-03-03T21:23:12.596Z,15.50
2019-03-03T21:25:41.401Z,14.43
2019-03-03T21:28:10.395Z,18.30
2019-03-03T21:30:39.388Z,17.17
2019-03-03T21:33:08.616Z,15.47
2019-03-03T21:35:37.316Z,18.43
2019-03-03T21:38:06.272Z,14.03
2019-03-03T21:40:34.953Z,17.00
2019-03-03T21:43:03.873Z,16.03
2019-03-03T21:45:32.753Z,20.73
2019-03-03T21:48:01.593Z,13.37
2019-03-03T21:50:31.473Z,14.90
2019-03-03T21:53:00.193Z,17.77
2019-03-03T21:55:29.889Z,14.70
2019-03-03T21:57:58.721Z,18.47
2019-03-03T22:00:35.249Z,19.00
2019-03-03T22:03:04.074Z,16.50
2019-03-03T22:05:32.630Z,13.93
2019-03-03T22:08:03.407Z,14.77
2019-03-03T22:10:34.940Z,13.63
2019-03-03T22:13:05.666Z,15.57
2019-03-03T22:15:34.427Z,12.60
2019-03-03T22:18:03.258Z,13.20
2019-03-03T22:20:32.012Z,12.43
2019-03-03T22:23:01.616Z,14.40
2019-03-03T22:25:30.531Z,17.07
2019-03-03T22:27:59.412Z,13.30
2019-03-03T22:30:28.413Z,14.77
2019-03-03T22:32:57.293Z,15.83
2019-03-03T22:35:26.293Z,13.93
2019-03-03T22:37:55.255Z,15.20
2019-03-03T22:40:25.016Z,18.13
2019-03-03T22:42:53.979Z,14.70
2019-03-03T22:45:22.858Z,11.40
2019-03-03T22:47:52.172Z,11.80
2019-03-03T22:50:21.503Z,13.17
2019-03-03T22:52:50.545Z,14.73
2019-03-03T22:55:20.504Z,13.17
2019-03-03T22:57:49.348Z,12.93
2019-03-03T23:00:46.936Z,14.30
2019-03-03T23:03:28.121Z,13.40
2019-03-03T23:06:16.755Z,12.37
2019-03-03T23:08:51.494Z,14.20
2019-03-03T23:11:41.759Z,11.97
2019-03-03T23:14:16.556Z,13.70
2019-03-03T23:16:54.495Z,14.20
2019-03-03T23:19:44.486Z,13.20
2019-03-03T23:22:36.065Z,8.13
2019-03-03T23:25:13.040Z,10.87
2019-03-03T23:27:41.935Z,12.97
2019-03-03T23:30:12.191Z,12.03
2019-03-03T23:32:41.034Z,14.03
2019-03-03T23:35:09.744Z,14.40
2019-03-03T23:37:38.251Z,13.47
2019-03-03T23:40:07.601Z,11.03
2019-03-03T23:42:36.150Z,14.23
2019-03-03T23:45:07.716Z,11.30
2019-03-03T23:47:37.778Z,13.00
2019-03-03T23:50:08.670Z,13.37
2019-03-03T23:52:39.429Z,9.60
2019-03-03T23:55:08.963Z,11.17
2019-03-03T23:57:37.567Z,9.27
